Time;durP1;ratioP1;P1;durP2;ratioP2;P2;SDS_P1;SDS_P2;PMS_P1;PMS_P2;Temp;Humidity;BMP_temperature;BMP_pressure;BME280_temperature;BME280_humidity;BME280_pressure;Samples;Min_cycle;Max_cycle;Signal;HPM_P1;HPM_P2
2022/11/04 00:01:51;;;;;;;31.30;23.17;;;10.70;99.90;;;;;;5094899;28;20044;-39
2022/11/04 00:04:19;;;;;;;31.02;24.17;;;10.90;99.90;;;;;;5096263;28;20044;-33
2022/11/04 00:06:45;;;;;;;27.60;21.20;;;11.00;99.90;;;;;;5095905;28;20474;-42
2022/11/04 00:09:19;;;;;;;27.77;21.48;;;11.30;99.90;;;;;;5096028;28;20043;-43
2022/11/04 00:14:31;;;;;;;18.08;13.63;;;11.10;99.90;;;;;;5095591;28;20494;-42
2022/11/04 00:33:49;;;;;;;7.40;6.10;;;10.30;99.90;;;;;;5094839;28;20099;-43
2022/11/04 00:36:15;;;;;;;8.45;6.00;;;10.30;99.90;;;;;;5095332;28;20051;-43
2022/11/04 00:38:41;;;;;;;6.28;4.70;;;10.20;99.90;;;;;;5094463;28;20501;-44
2022/11/04 00:41:24;;;;;;;6.00;4.53;;;10.50;99.90;;;;;;5095408;28;20044;-43
2022/11/04 00:44:01;;;;;;;7.07;3.17;;;10.00;99.90;;;;;;5094706;28;20055;-42
2022/11/04 00:46:29;;;;;;;5.53;3.53;;;10.20;99.90;;;;;;5077509;28;20531;-41
2022/11/04 00:48:55;;;;;;;3.30;2.22;;;10.00;99.90;;;;;;5095217;28;20108;-42
2022/11/04 00:51:21;;;;;;;5.50;2.67;;;10.10;99.90;;;;;;5095215;28;20048;-43
2022/11/04 00:53:47;;;;;;;3.22;1.67;;;10.20;99.90;;;;;;5095000;28;20059;-44
2022/11/04 00:56:13;;;;;;;4.78;1.40;;;9.90;99.90;;;;;;5095092;28;20131;-44
2022/11/04 00:58:39;;;;;;;4.45;0.90;;;10.10;99.90;;;;;;5094836;28;20075;-46
2022/11/04 01:01:16;;;;;;;2.95;1.05;;;9.90;99.90;;;;;;5094732;28;20502;-46
2022/11/04 01:03:42;;;;;;;2.70;0.63;;;10.10;99.90;;;;;;5095356;28;20059;-44
2022/11/04 01:06:08;;;;;;;2.45;0.43;;;10.10;99.90;;;;;;5095680;28;20165;-46
2022/11/04 01:08:34;;;;;;;0.98;0.65;;;9.80;99.90;;;;;;5094821;28;20569;-36
2022/11/04 01:11:04;;;;;;;3.33;0.10;;;9.70;99.90;;;;;;5094876;28;20051;-36
2022/11/04 01:13:30;;;;;;;1.98;0.10;;;10.00;99.90;;;;;;5095370;28;20059;-36
2022/11/04 01:15:58;;;;;;;0.90;0.20;;;10.00;99.90;;;;;;5094745;28;20047;-36
2022/11/04 01:18:23;;;;;;;4.80;0.70;;;9.70;99.90;;;;;;5094705;28;20047;-35
2022/11/04 01:20:49;;;;;;;5.32;0.28;;;10.00;99.90;;;;;;5061046;28;20052;-36
2022/11/04 01:23:15;;;;;;;4.68;1.00;;;9.90;99.90;;;;;;5094644;28;20127;-35
2022/11/04 01:25:41;;;;;;;4.47;0.40;;;9.70;99.90;;;;;;5094564;28;20044;-38
2022/11/04 01:28:06;;;;;;;3.53;0.32;;;9.80;99.90;;;;;;5094490;28;20128;-36
2022/11/04 01:30:32;;;;;;;1.50;0.22;;;9.80;99.90;;;;;;5093339;28;20402;-38
2022/11/04 01:32:58;;;;;;;3.92;0.28;;;9.70;99.90;;;;;;5093904;28;20047;-39
2022/11/04 01:35:24;;;;;;;4.30;0.60;;;9.90;99.90;;;;;;5093551;28;20048;-41
2022/11/04 01:37:49;;;;;;;2.97;0.40;;;9.70;99.90;;;;;;5094448;28;20406;-38
2022/11/04 01:40:15;;;;;;;6.03;0.40;;;9.90;99.90;;;;;;5094320;28;20088;-37
2022/11/04 01:42:41;;;;;;;5.13;0.60;;;10.00;99.90;;;;;;5093115;28;20132;-37
2022/11/04 01:45:14;;;;;;;6.00;0.93;;;9.90;99.90;;;;;;5094779;28;20047;-38
2022/11/04 01:47:45;;;;;;;1.48;0.50;;;10.00;99.90;;;;;;5093886;28;20117;-39
2022/11/04 01:50:19;;;;;;;5.30;0.50;;;10.10;99.90;;;;;;5093941;28;20619;-38
2022/11/04 01:53:01;;;;;;;7.03;0.68;;;9.90;99.90;;;;;;5092906;28;20052;-37
2022/11/04 01:55:33;;;;;;;3.28;0.70;;;10.00;99.90;;;;;;5094975;28;20047;-37
2022/11/04 01:58:08;;;;;;;2.20;0.50;;;9.70;99.90;;;;;;5094028;28;20040;-36
2022/11/04 02:00:33;;;;;;;3.60;0.70;;;9.90;99.90;;;;;;5093894;28;20132;-36
2022/11/04 02:03:11;;;;;;;2.50;0.40;;;10.00;99.90;;;;;;5093000;28;20497;-36
2022/11/04 02:05:38;;;;;;;8.27;0.95;;;10.00;99.90;;;;;;5093576;28;20051;-35
2022/11/04 02:08:05;;;;;;;8.50;0.45;;;10.10;99.90;;;;;;5094585;28;20052;-36
2022/11/04 02:10:31;;;;;;;6.53;0.80;;;9.70;99.90;;;;;;5076624;28;20048;-34
2022/11/04 02:13:01;;;;;;;5.40;0.43;;;9.90;99.90;;;;;;5094398;28;20047;-33
2022/11/04 02:15:46;;;;;;;5.03;1.60;;;9.70;99.90;;;;;;5093827;28;20067;-35
2022/11/04 02:18:26;;;;;;;5.07;1.17;;;9.70;99.90;;;;;;5094099;28;20067;-34
2022/11/04 02:21:33;;;;;;;3.50;0.50;;;9.70;99.90;;;;;;5094369;28;20105;-34
2022/11/04 02:24:36;;;;;;;4.15;0.63;;;9.90;99.90;;;;;;5082801;28;20048;-35
2022/11/04 02:27:20;;;;;;;6.50;1.05;;;10.00;99.90;;;;;;5093699;28;20040;-35
2022/11/04 02:30:04;;;;;;;4.88;0.52;;;10.00;99.90;;;;;;5093764;28;20105;-35
2022/11/04 02:32:57;;;;;;;6.47;0.32;;;10.00;99.90;;;;;;5094294;28;20078;-35
2022/11/04 02:35:27;;;;;;;7.53;0.65;;;9.70;99.90;;;;;;5094545;28;20084;-35
2022/11/04 02:38:11;;;;;;;6.88;0.60;;;10.00;99.90;;;;;;5093586;28;20040;-35
2022/11/04 02:41:15;;;;;;;9.32;0.50;;;9.50;99.90;;;;;;5094492;28;20048;-35
2022/11/04 02:44:04;;;;;;;3.80;0.30;;;9.60;99.90;;;;;;5071059;28;20083;-35
2022/11/04 02:46:47;;;;;;;12.15;1.23;;;9.90;99.90;;;;;;5071076;28;20059;-35
2022/11/04 02:49:27;;;;;;;9.15;0.50;;;9.40;99.90;;;;;;5087408;28;20085;-36
2022/11/04 02:52:18;;;;;;;9.10;0.75;;;9.40;99.90;;;;;;5094097;28;20082;-36
2022/11/04 02:54:50;;;;;;;5.60;0.80;;;9.60;99.90;;;;;;5093590;28;20112;-36
2022/11/04 02:57:27;;;;;;;6.03;0.95;;;9.40;99.90;;;;;;5096123;28;20131;-36
2022/11/04 03:00:13;;;;;;;8.00;0.77;;;9.60;99.90;;;;;;5097302;28;20048;-36
2022/11/04 03:02:43;;;;;;;6.05;0.60;;;9.30;99.90;;;;;;5097226;28;20102;-36
2022/11/04 03:05:14;;;;;;;3.20;0.73;;;9.40;99.90;;;;;;5097328;28;20048;-37
2022/11/04 03:07:42;;;;;;;4.90;0.52;;;9.70;99.90;;;;;;5097481;28;20492;-36
2022/11/04 03:10:21;;;;;;;8.93;0.70;;;9.70;99.90;;;;;;5096103;28;20497;-37
2022/11/04 03:12:59;;;;;;;7.30;0.55;;;9.50;99.90;;;;;;5097248;28;20105;-36
2022/11/04 03:15:33;;;;;;;13.38;1.05;;;9.80;99.90;;;;;;5097402;28;20425;-37
2022/11/04 03:18:09;;;;;;;6.10;0.65;;;9.40;99.90;;;;;;5097106;28;20109;-36
2022/11/04 03:20:37;;;;;;;8.05;0.98;;;9.80;99.90;;;;;;5096306;28;20052;-37
2022/11/04 03:23:03;;;;;;;6.93;0.68;;;9.90;99.90;;;;;;5096000;28;20608;-37
2022/11/04 03:25:36;;;;;;;5.75;1.20;;;9.90;99.90;;;;;;5095804;28;20510;-37
2022/11/04 03:28:07;;;;;;;7.88;0.80;;;9.80;99.90;;;;;;5096820;28;20036;-36
2022/11/04 03:30:41;;;;;;;5.60;0.90;;;9.70;99.90;;;;;;5097128;28;20126;-37
2022/11/04 03:33:12;;;;;;;5.97;1.17;;;9.40;99.90;;;;;;5096778;28;20486;-37
2022/11/04 03:35:38;;;;;;;4.20;0.60;;;9.90;99.90;;;;;;5096708;28;20042;-37
2022/11/04 03:38:04;;;;;;;11.88;1.15;;;9.70;99.90;;;;;;5096710;28;20040;-37
2022/11/04 03:40:30;;;;;;;4.57;1.08;;;9.50;99.90;;;;;;5095692;28;20477;-38
2022/11/04 03:43:03;;;;;;;6.97;0.93;;;9.70;99.90;;;;;;5096451;28;20127;-38
2022/11/04 03:45:29;;;;;;;10.93;0.80;;;9.90;99.90;;;;;;5096181;28;20436;-38
2022/11/04 03:47:55;;;;;;;8.82;0.80;;;9.40;99.90;;;;;;5096436;28;20139;-37
2022/11/04 03:50:28;;;;;;;7.38;0.80;;;9.50;99.90;;;;;;5096404;28;20050;-37
2022/11/04 03:52:55;;;;;;;5.72;0.80;;;9.50;99.90;;;;;;5096190;28;20513;-31
2022/11/04 03:55:45;;;;;;;9.88;1.38;;;9.70;99.90;;;;;;5096207;28;20056;-43
2022/11/04 03:58:21;;;;;;;10.27;1.33;;;9.50;99.90;;;;;;5096898;28;20079;-43
2022/11/04 04:00:57;;;;;;;5.60;0.80;;;9.50;99.90;;;;;;5097175;28;20391;-42
2022/11/04 04:04:07;;;;;;;6.72;1.15;;;9.50;99.90;;;;;;5095568;28;20048;-42
2022/11/04 04:06:38;;;;;;;9.00;0.98;;;9.40;99.90;;;;;;5092572;28;20048;-41
2022/11/04 04:09:47;;;;;;;6.55;0.90;;;9.50;99.90;;;;;;5096066;28;20485;-43
2022/11/04 04:12:39;;;;;;;2.88;0.80;;;9.50;99.90;;;;;;5073447;28;20045;-44
2022/11/04 04:15:18;;;;;;;2.97;0.60;;;9.70;99.90;;;;;;5093271;28;20059;-42
2022/11/04 04:18:06;;;;;;;4.18;1.08;;;9.50;99.90;;;;;;5094990;28;20622;-42
2022/11/04 04:20:41;;;;;;;5.28;0.80;;;9.30;99.90;;;;;;5096768;28;20051;-44
2022/11/04 04:28:45;;;;;;;5.45;1.27;;;10.00;99.90;;;;;;5096253;28;20095;-43
2022/11/04 04:31:48;;;;;;;3.72;1.17;;;9.20;99.90;;;;;;5094525;28;20054;-44
2022/11/04 04:34:01;;;;;;;5.28;1.63;;;9.70;99.90;;;;;;5093895;28;20059;-45
2022/11/04 04:36:28;;;;;;;3.60;1.48;;;9.90;99.90;;;;;;5095581;28;20432;-45
2022/11/04 04:47:18;;;;;;;7.28;1.38;;;9.50;99.90;;;;;;5095312;28;20043;-43
2022/11/04 04:50:00;;;;;;;5.32;1.38;;;9.80;99.90;;;;;;5095318;28;20044;-44
2022/11/04 04:52:32;;;;;;;7.78;1.08;;;9.20;99.90;;;;;;5093879;28;20056;-45
2022/11/04 04:55:00;;;;;;;4.35;0.95;;;9.10;99.90;;;;;;5095235;28;20383;-44
2022/11/04 04:57:26;;;;;;;2.60;0.63;;;9.00;99.90;;;;;;5095137;28;20046;-44
2022/11/04 04:59:51;;;;;;;6.10;1.13;;;9.70;99.90;;;;;;5095652;28;20382;-44
2022/11/04 05:02:17;;;;;;;4.30;1.00;;;9.70;99.90;;;;;;5094075;28;20048;-43
2022/11/04 05:04:43;;;;;;;3.22;0.70;;;9.00;99.90;;;;;;5094848;28;20048;-43
2022/11/04 05:07:09;;;;;;;5.30;1.08;;;9.60;99.90;;;;;;5094971;28;20036;-45
2022/11/04 05:09:35;;;;;;;8.23;1.13;;;9.20;99.90;;;;;;5094755;28;20532;-44
2022/11/04 05:12:03;;;;;;;3.47;0.80;;;9.10;99.90;;;;;;5094864;28;20387;-44
2022/11/04 05:14:31;;;;;;;4.63;1.02;;;9.10;99.90;;;;;;5095040;28;20432;-44
2022/11/04 05:16:57;;;;;;;5.30;1.25;;;9.70;99.90;;;;;;5076628;28;20048;-42
2022/11/04 05:19:23;;;;;;;5.38;1.02;;;9.60;99.90;;;;;;5094224;28;20436;-42
2022/11/04 05:21:48;;;;;;;2.00;0.45;;;9.60;99.90;;;;;;5094694;28;20122;-41
2022/11/04 05:24:14;;;;;;;9.65;0.88;;;9.00;99.90;;;;;;5093476;28;20044;-42
2022/11/04 05:26:40;;;;;;;5.97;0.80;;;9.60;99.90;;;;;;5094405;28;20048;-42
2022/11/04 05:29:05;;;;;;;3.17;0.50;;;8.90;99.90;;;;;;5094581;28;20097;-42
2022/11/04 05:31:31;;;;;;;5.05;1.00;;;9.00;99.90;;;;;;5094540;28;20048;-41
2022/11/04 05:33:58;;;;;;;4.38;0.95;;;9.50;99.90;;;;;;5094589;28;20048;-42
2022/11/04 05:36:24;;;;;;;7.60;1.33;;;9.40;99.90;;;;;;5094495;28;20044;-42
2022/11/04 05:38:52;;;;;;;4.88;0.70;;;9.50;99.90;;;;;;5094395;28;20500;-42
2022/11/04 05:41:24;;;;;;;2.58;0.82;;;9.50;99.90;;;;;;5094398;28;20047;-42
2022/11/04 05:44:01;;;;;;;3.20;0.60;;;9.30;99.90;;;;;;5094231;28;20067;-42
2022/11/04 05:46:27;;;;;;;6.43;0.95;;;8.60;99.90;;;;;;5093719;28;20127;-42
2022/11/04 05:48:53;;;;;;;5.07;0.73;;;9.20;99.90;;;;;;5092979;28;20040;-41
2022/11/04 05:51:22;;;;;;;7.10;1.20;;;8.60;99.90;;;;;;5093495;28;20052;-41
2022/11/04 05:53:48;;;;;;;4.07;0.63;;;8.60;99.90;;;;;;5094700;28;20126;-42
2022/11/04 05:56:14;;;;;;;3.15;0.88;;;9.20;99.90;;;;;;5094703;28;20360;-42
2022/11/04 05:58:39;;;;;;;5.32;0.80;;;9.30;99.90;;;;;;5094136;28;20043;-42
2022/11/04 06:01:25;;;;;;;4.32;0.70;;;8.70;99.90;;;;;;5092910;28;20103;-42
2022/11/04 06:03:52;;;;;;;4.10;0.90;;;9.10;99.90;;;;;;5093010;28;20504;-41
2022/11/04 06:06:19;;;;;;;4.82;0.80;;;8.40;99.90;;;;;;5093891;28;20040;-41
2022/11/04 06:08:44;;;;;;;3.40;0.60;;;8.90;99.90;;;;;;5094148;28;20051;-41
2022/11/04 06:11:10;;;;;;;4.65;0.80;;;9.30;99.90;;;;;;5093256;28;20048;-41
2022/11/04 06:13:36;;;;;;;4.75;0.70;;;8.50;99.90;;;;;;5093888;28;20047;-42
2022/11/04 06:16:02;;;;;;;6.25;1.23;;;8.40;99.90;;;;;;5092682;28;20092;-42
2022/11/04 06:18:27;;;;;;;4.40;0.90;;;9.00;99.90;;;;;;5092664;28;20086;-42
2022/11/04 06:21:17;;;;;;;8.77;1.00;;;8.40;99.90;;;;;;5093771;28;20148;-41
2022/11/04 06:23:43;;;;;;;5.97;0.80;;;9.10;99.90;;;;;;5092604;28;20497;-42
2022/11/04 06:26:11;;;;;;;2.80;0.80;;;8.90;99.90;;;;;;5094302;28;20048;-41
2022/11/04 06:28:37;;;;;;;4.68;1.05;;;8.20;99.90;;;;;;5093599;28;20044;-41
2022/11/04 06:31:05;;;;;;;5.03;0.70;;;8.10;99.90;;;;;;5093131;28;20052;-41
2022/11/04 06:33:31;;;;;;;5.72;0.63;;;8.60;99.90;;;;;;5097941;28;20127;-41
2022/11/04 06:35:58;;;;;;;6.07;0.85;;;8.70;99.90;;;;;;5097875;28;20136;-41
2022/11/04 06:38:24;;;;;;;3.08;0.90;;;7.90;99.90;;;;;;5098384;28;20048;-41
2022/11/04 06:40:50;;;;;;;3.70;0.85;;;7.90;99.90;;;;;;5096576;28;20147;-41
2022/11/04 06:43:18;;;;;;;4.50;1.10;;;7.80;99.90;;;;;;5097677;28;20051;-41
2022/11/04 06:45:44;;;;;;;5.85;0.90;;;8.20;99.90;;;;;;5097698;28;20132;-40
2022/11/04 06:48:09;;;;;;;5.38;0.57;;;7.80;99.90;;;;;;5097935;28;20080;-40
2022/11/04 06:50:35;;;;;;;6.93;0.88;;;8.50;99.90;;;;;;5096623;28;20478;-41
2022/11/04 06:53:00;;;;;;;9.23;1.30;;;7.80;99.90;;;;;;5096135;28;20064;-41
2022/11/04 06:55:26;;;;;;;6.13;1.10;;;8.40;99.90;;;;;;5079523;28;20088;-42
2022/11/04 06:57:52;;;;;;;11.35;1.80;;;7.70;99.90;;;;;;5097769;28;20102;-42
2022/11/04 07:00:18;;;;;;;7.25;2.28;;;7.80;99.90;;;;;;5079606;28;20067;-41
2022/11/04 07:02:43;;;;;;;12.32;3.33;;;7.50;99.90;;;;;;5097005;28;20050;-41
2022/11/04 07:05:09;;;;;;;6.75;2.40;;;8.40;99.90;;;;;;5096333;28;20569;-41
2022/11/04 07:07:35;;;;;;;5.75;2.00;;;7.70;99.90;;;;;;5079701;28;20055;-40
2022/11/04 07:10:01;;;;;;;6.90;1.77;;;7.70;99.90;;;;;;5097780;28;20054;-40
2022/11/04 07:12:26;;;;;;;9.70;2.45;;;8.30;99.90;;;;;;5097200;28;20074;-40
2022/11/04 07:14:54;;;;;;;9.30;2.75;;;7.70;99.90;;;;;;5079268;28;20043;-40
2022/11/04 07:17:27;;;;;;;9.73;2.38;;;8.50;99.90;;;;;;5079522;28;20056;-40
2022/11/04 07:19:53;;;;;;;6.25;2.03;;;7.90;99.90;;;;;;5096506;28;20104;-40
2022/11/04 07:22:19;;;;;;;8.65;2.28;;;8.10;99.90;;;;;;5096978;28;20126;-41
2022/11/04 07:24:44;;;;;;;14.32;3.40;;;7.70;99.90;;;;;;5095703;28;20098;-41
2022/11/04 07:27:10;;;;;;;7.03;2.40;;;8.50;99.90;;;;;;5095720;28;20500;-41
2022/11/04 07:29:36;;;;;;;9.77;3.15;;;8.60;99.90;;;;;;5096605;28;20059;-41
2022/11/04 07:32:02;;;;;;;7.57;2.65;;;8.60;99.90;;;;;;5097408;28;20043;-41
2022/11/04 07:34:28;;;;;;;6.07;2.17;;;8.70;99.90;;;;;;5079557;28;20101;-40
2022/11/04 07:36:53;;;;;;;12.15;2.30;;;8.10;99.90;;;;;;5078738;28;20462;-41
2022/11/04 07:39:19;;;;;;;5.15;2.70;;;8.60;99.90;;;;;;5097244;28;20057;-41
2022/11/04 07:41:45;;;;;;;7.55;2.63;;;8.50;99.90;;;;;;5096137;28;20062;-41
2022/11/04 07:44:11;;;;;;;14.45;2.58;;;8.50;99.90;;;;;;5096219;28;20056;-41
2022/11/04 07:46:37;;;;;;;11.10;3.13;;;7.90;99.90;;;;;;5095841;28;20512;-41
2022/11/04 07:49:03;;;;;;;10.52;2.47;;;7.90;99.90;;;;;;5095272;28;20076;-40
2022/11/04 07:51:31;;;;;;;9.70;1.77;;;7.90;99.90;;;;;;5096477;28;20044;-40
2022/11/04 07:54:05;;;;;;;9.68;3.28;;;8.90;99.90;;;;;;5097591;28;20059;-40
2022/11/04 07:56:30;;;;;;;7.45;1.73;;;8.80;99.90;;;;;;5086914;28;20127;-40
2022/11/04 07:58:56;;;;;;;8.15;2.17;;;8.10;99.90;;;;;;5089156;28;20218;-41
2022/11/04 08:01:30;;;;;;;7.80;2.25;;;8.60;99.90;;;;;;5084876;28;20119;-41
2022/11/04 08:04:01;;;;;;;6.75;1.70;;;9.00;99.90;;;;;;5078729;28;20044;-41
2022/11/04 08:06:29;;;;;;;6.30;1.73;;;8.30;99.90;;;;;;5080071;28;20434;-41
2022/11/04 08:08:57;;;;;;;5.78;1.70;;;9.00;99.90;;;;;;5096298;28;20050;-41
2022/11/04 08:11:27;;;;;;;8.63;1.88;;;8.80;99.90;;;;;;5096033;28;20040;-41
2022/11/04 08:13:54;;;;;;;8.20;1.58;;;9.20;99.90;;;;;;5094516;28;20440;-42
2022/11/04 08:16:24;;;;;;;7.15;1.75;;;8.50;99.90;;;;;;5056857;28;20044;-42
2022/11/04 08:18:54;;;;;;;7.78;1.58;;;8.90;99.90;;;;;;5076516;28;20044;-42
2022/11/04 08:21:20;;;;;;;4.35;0.90;;;9.20;99.90;;;;;;5079315;28;20169;-42
2022/11/04 08:23:47;;;;;;;4.50;0.98;;;9.10;99.90;;;;;;5095139;28;20051;-42
2022/11/04 08:26:16;;;;;;;5.90;0.88;;;9.00;99.90;;;;;;5088284;28;20045;-42
2022/11/04 08:28:42;;;;;;;7.35;1.15;;;9.10;99.90;;;;;;5074475;28;20052;-43
2022/11/04 08:31:17;;;;;;;5.00;1.15;;;9.00;99.90;;;;;;5075478;28;20526;-43
2022/11/04 08:33:43;;;;;;;3.53;0.88;;;9.10;99.90;;;;;;5075418;28;20045;-43
2022/11/04 08:36:22;;;;;;;5.47;1.20;;;9.20;99.90;;;;;;5057348;28;20123;-44
2022/11/04 08:38:48;;;;;;;6.75;1.42;;;9.40;99.90;;;;;;5075280;28;20040;-44
2022/11/04 08:41:19;;;;;;;8.68;1.10;;;9.00;99.90;;;;;;5073967;28;20032;-44
2022/11/04 08:43:45;;;;;;;6.07;1.17;;;9.10;99.90;;;;;;5073933;28;20059;-45
2022/11/04 08:46:12;;;;;;;4.75;1.38;;;9.40;99.90;;;;;;5074179;28;20048;-44
2022/11/04 08:48:40;;;;;;;5.45;1.23;;;9.10;99.90;;;;;;5074380;28;20048;-44
2022/11/04 08:51:15;;;;;;;4.70;1.00;;;9.50;99.90;;;;;;5075865;28;20066;-44
2022/11/04 08:53:41;;;;;;;3.78;0.82;;;9.30;99.90;;;;;;5085840;28;20429;-46
2022/11/04 08:56:19;;;;;;;8.10;1.27;;;9.50;99.90;;;;;;5095167;28;20097;-45
2022/11/04 08:58:45;;;;;;;8.18;1.13;;;9.60;99.90;;;;;;5079015;28;20380;-47
2022/11/04 09:01:11;;;;;;;8.27;2.25;;;9.30;99.90;;;;;;5075588;28;20098;-47
2022/11/04 09:03:39;;;;;;;9.43;1.80;;;9.60;99.90;;;;;;5075272;28;20048;-47
2022/11/04 09:06:08;;;;;;;4.80;1.38;;;9.70;99.90;;;;;;5075153;28;20044;-49
2022/11/04 09:08:33;;;;;;;5.45;0.88;;;9.70;99.90;;;;;;5073726;28;20055;-40
2022/11/04 09:11:00;;;;;;;4.97;1.17;;;9.80;99.90;;;;;;5074718;28;20041;-43
2022/11/04 09:13:26;;;;;;;4.32;0.85;;;9.70;99.90;;;;;;5075181;28;20048;-44
2022/11/04 09:15:52;;;;;;;2.17;0.65;;;9.80;99.90;;;;;;5074632;28;20049;-44
2022/11/04 09:18:18;;;;;;;5.43;1.40;;;10.00;99.90;;;;;;5073424;28;20055;-50
2022/11/04 09:20:43;;;;;;;8.52;1.23;;;9.90;99.90;;;;;;5075050;28;20044;-50
2022/11/04 09:23:09;;;;;;;8.88;1.65;;;10.00;99.90;;;;;;5073176;28;20067;-49
2022/11/04 09:25:36;;;;;;;7.75;1.40;;;10.10;99.90;;;;;;5074477;28;20106;-49
2022/11/04 09:28:03;;;;;;;5.22;0.85;;;10.20;99.90;;;;;;5074848;28;20052;-54
2022/11/04 09:30:29;;;;;;;11.82;1.40;;;10.30;99.90;;;;;;5087172;28;20048;-56
2022/11/04 09:32:54;;;;;;;3.65;1.02;;;10.40;99.90;;;;;;5093562;28;20040;-57
2022/11/04 09:35:20;;;;;;;1.27;0.43;;;10.40;99.90;;;;;;5093819;28;20077;-57
2022/11/04 09:37:46;;;;;;;4.28;0.45;;;10.60;99.90;;;;;;5076634;28;20071;-50
2022/11/04 09:40:15;;;;;;;5.47;0.98;;;10.60;99.90;;;;;;5083665;28;20079;-57
2022/11/04 09:43:23;;;;;;;7.93;0.85;;;10.80;99.90;;;;;;5073709;28;20056;-56
2022/11/04 09:45:48;;;;;;;7.85;0.98;;;10.90;99.90;;;;;;5056772;28;20078;-46
2022/11/04 09:48:44;;;;;;;7.63;0.80;;;11.10;99.90;;;;;;5073143;28;20437;-51
2022/11/04 09:51:10;;;;;;;3.90;0.60;;;11.20;99.90;;;;;;5073208;28;20064;-48
2022/11/04 09:53:50;;;;;;;2.63;0.32;;;11.40;99.90;;;;;;5072508;28;20418;-47
2022/11/04 09:56:27;;;;;;;3.63;0.70;;;11.40;99.90;;;;;;5073815;28;20052;-43
2022/11/04 09:58:53;;;;;;;5.47;0.93;;;11.60;99.90;;;;;;5057042;28;20075;-41
2022/11/04 10:01:26;;;;;;;6.47;0.57;;;11.70;99.90;;;;;;5061334;28;20445;-41
2022/11/04 10:04:27;;;;;;;3.60;0.45;;;11.70;99.90;;;;;;5073182;28;20052;-39
2022/11/04 10:07:04;;;;;;;3.55;0.93;;;11.60;99.90;;;;;;5074310;28;20044;-41
2022/11/04 10:09:50;;;;;;;5.43;0.80;;;11.60;99.90;;;;;;5073804;28;20279;-38
2022/11/04 10:12:49;;;;;;;10.00;0.98;;;11.50;99.90;;;;;;5074692;28;20059;-37
2022/11/04 10:15:44;;;;;;;8.80;0.85;;;11.40;99.90;;;;;;5073695;28;20127;-37
2022/11/04 10:18:24;;;;;;;3.35;0.47;;;11.40;99.90;;;;;;5074498;28;20040;-35
2022/11/04 10:20:53;;;;;;;5.80;0.90;;;11.30;99.90;;;;;;5072666;28;20040;-36
2022/11/04 10:23:43;;;;;;;3.70;0.82;;;11.30;99.90;;;;;;5087800;28;20055;-34
2022/11/04 10:26:23;;;;;;;6.40;0.65;;;11.40;99.90;;;;;;5094382;28;20044;-34
2022/11/04 10:28:57;;;;;;;3.72;0.73;;;11.40;99.90;;;;;;5093740;28;20040;-33
2022/11/04 10:31:24;;;;;;;5.70;1.85;;;11.50;99.90;;;;;;5076229;28;20104;-33
2022/11/04 10:33:57;;;;;;;6.25;0.60;;;11.70;99.90;;;;;;5076580;28;20560;-33
2022/11/04 10:36:23;;;;;;;;;;;11.90;99.90;;;;;;5073953;28;20048;-32
2022/11/04 10:38:51;;;;;;;9.63;2.03;;;12.10;99.90;;;;;;5073439;28;19921;-34
2022/11/04 10:41:37;;;;;;;8.98;1.33;;;12.20;99.90;;;;;;5074050;28;20044;-41
2022/11/04 10:44:05;;;;;;;6.10;0.68;;;12.20;99.90;;;;;;5073764;28;20536;-40
2022/11/04 10:46:39;;;;;;;4.57;0.82;;;12.20;99.90;;;;;;5073399;28;20056;-40
2022/11/04 10:49:52;;;;;;;3.13;0.50;;;12.10;99.90;;;;;;5073354;28;20127;-40
2022/11/04 10:52:18;;;;;;;5.30;0.85;;;12.20;99.90;;;;;;5060504;28;20109;-41
2022/11/04 10:54:48;;;;;;;5.00;0.77;;;12.30;99.90;;;;;;5073448;28;20060;-35
2022/11/04 10:57:23;;;;;;;5.90;0.90;;;12.30;99.90;;;;;;5073272;28;20049;-38
2022/11/04 11:00:01;;;;;;;3.15;1.17;;;12.20;99.90;;;;;;5073240;28;20101;-38
2022/11/04 11:02:36;;;;;;;5.68;0.90;;;12.20;99.90;;;;;;5073149;28;20088;-37
2022/11/04 11:05:12;;;;;;;7.32;1.10;;;12.10;99.90;;;;;;5072964;28;20049;-34
2022/11/04 11:07:38;;;;;;;4.30;0.50;;;12.00;99.90;;;;;;5071980;28;20406;-35
2022/11/04 11:10:04;;;;;;;8.82;1.02;;;11.90;99.90;;;;;;5055504;28;20044;-33
2022/11/04 11:12:35;;;;;;;5.22;0.60;;;11.90;99.90;;;;;;5071955;28;20045;-35
2022/11/04 11:15:26;;;;;;;6.95;1.13;;;11.90;99.90;;;;;;5072157;28;20486;-33
2022/11/04 11:18:07;;;;;;;6.13;0.90;;;11.80;99.90;;;;;;5074945;28;20040;-34
2022/11/04 11:20:36;;;;;;;4.65;0.55;;;11.80;99.90;;;;;;5077587;28;20484;-33
2022/11/04 11:23:08;;;;;;;3.50;0.80;;;11.90;99.90;;;;;;5075747;28;20539;-33
2022/11/04 11:25:34;;;;;;;5.47;1.42;;;12.00;99.90;;;;;;5076510;28;20041;-32
2022/11/04 11:28:20;;;;;;;5.25;1.08;;;12.00;99.90;;;;;;5076599;28;20462;-33
2022/11/04 11:30:46;;;;;;;6.55;1.00;;;11.90;99.90;;;;;;5075478;28;20048;-32
2022/11/04 11:33:26;;;;;;;2.45;0.30;;;11.70;99.90;;;;;;5076541;28;20056;-33
2022/11/04 11:36:13;;;;;;;4.07;0.50;;;11.40;99.90;;;;;;5075252;28;20047;-31
2022/11/04 11:39:02;;;;;;;7.20;1.08;;;11.10;99.90;;;;;;5077005;28;20477;-32
2022/11/04 11:41:32;;;;;;;6.88;0.82;;;10.90;99.90;;;;;;5077354;28;20367;-31
2022/11/04 11:44:37;;;;;;;4.47;0.50;;;10.70;99.90;;;;;;5075197;28;20076;-30
2022/11/04 11:47:17;;;;;;;3.53;0.40;;;10.30;99.90;;;;;;5065697;28;20131;-29
2022/11/04 11:49:43;;;;;;;4.53;0.52;;;10.00;99.90;;;;;;5077185;28;20044;-29
2022/11/04 11:52:31;;;;;;;4.22;0.57;;;9.80;99.90;;;;;;5075573;28;20071;-29
2022/11/04 11:55:19;;;;;;;4.97;0.80;;;9.80;99.90;;;;;;5076057;28;20131;-32
2022/11/04 11:57:53;;;;;;;4.55;0.77;;;9.80;99.90;;;;;;5075975;28;20119;-31
2022/11/04 12:00:21;;;;;;;3.35;0.77;;;9.80;99.90;;;;;;5075424;28;20052;-32
2022/11/04 12:03:05;;;;;;;7.55;0.90;;;9.80;99.90;;;;;;5074802;28;20131;-32
2022/11/04 12:05:55;;;;;;;5.82;0.50;;;10.00;99.90;;;;;;5076865;28;20128;-31
2022/11/04 12:08:33;;;;;;;6.75;2.05;;;10.00;99.90;;;;;;5096654;28;20103;-31
2022/11/04 12:11:11;;;;;;;2.92;0.40;;;10.10;99.90;;;;;;5076534;28;20130;-29
2022/11/04 12:13:40;;;;;;;5.38;0.93;;;10.20;99.90;;;;;;5075942;28;20091;-30
2022/11/04 12:16:18;;;;;;;5.05;0.73;;;10.30;99.90;;;;;;5057862;28;20049;-31
2022/11/04 12:19:03;;;;;;;5.72;0.95;;;10.30;99.90;;;;;;5074689;28;20036;-32
2022/11/04 12:21:33;;;;;;;5.72;0.68;;;10.50;99.90;;;;;;5075534;28;20534;-31
2022/11/04 12:24:27;;;;;;;5.13;0.80;;;10.60;99.90;;;;;;5075106;28;20383;-32
2022/11/04 12:27:10;;;;;;;;;;;10.80;99.90;;;;;;5075370;28;20063;-31
2022/11/04 12:29:59;;;;;;;4.00;0.68;;;10.90;99.90;;;;;;5075112;28;19927;-33
2022/11/04 12:32:39;;;;;;;2.28;0.60;;;11.00;99.90;;;;;;5076364;28;20379;-32
2022/11/04 12:35:13;;;;;;;5.93;0.90;;;11.60;99.90;;;;;;5075470;28;20044;-33
2022/11/04 12:38:04;;;;;;;4.22;0.80;;;12.20;99.90;;;;;;5075375;28;20048;-33
2022/11/04 12:40:50;;;;;;;4.18;0.70;;;12.80;99.90;;;;;;5076038;28;20076;-33
2022/11/04 12:43:26;;;;;;;6.13;0.85;;;13.30;99.90;;;;;;5075314;28;20084;-33
2022/11/04 12:45:55;;;;;;;7.20;0.88;;;13.40;99.90;;;;;;5075815;28;20044;-32
2022/11/04 12:49:01;;;;;;;4.82;0.75;;;13.40;99.90;;;;;;5073972;28;20053;-33
2022/11/04 12:51:49;;;;;;;6.38;0.80;;;13.40;99.90;;;;;;5075661;28;20106;-33
2022/11/04 12:54:18;;;;;;;5.28;0.80;;;13.50;99.90;;;;;;5075515;28;20067;-32
2022/11/04 12:56:43;;;;;;;7.20;0.88;;;13.50;99.90;;;;;;5074972;28;20049;-32
2022/11/04 12:59:24;;;;;;;6.00;0.65;;;13.40;99.90;;;;;;5073729;28;20056;-31
2022/11/04 13:01:51;;;;;;;6.20;0.98;;;13.40;99.90;;;;;;5092039;28;20093;-32
2022/11/04 13:04:21;;;;;;;3.70;0.63;;;13.40;99.90;;;;;;5093895;28;20485;-31
2022/11/04 13:06:53;;;;;;;6.70;0.85;;;13.30;99.90;;;;;;5093782;28;20048;-31
2022/11/04 13:09:44;;;;;;;7.75;1.05;;;13.30;99.90;;;;;;5095217;28;20098;-32
2022/11/04 13:12:21;;;;;;;4.70;0.93;;;13.30;99.90;;;;;;5091048;28;20106;-33
2022/11/04 13:14:53;;;;;;;7.15;1.20;;;13.20;99.90;;;;;;5074644;28;20040;-31
2022/11/04 13:17:28;;;;;;;12.02;1.33;;;13.20;99.90;;;;;;5074605;28;20048;-31
2022/11/04 13:20:05;;;;;;;6.70;1.13;;;13.20;99.90;;;;;;5073619;28;20053;-31
2022/11/04 13:22:34;;;;;;;7.28;1.08;;;13.30;99.90;;;;;;5074531;28;20049;-31
2022/11/04 13:25:03;;;;;;;9.38;1.00;;;13.30;99.90;;;;;;5075276;28;20053;-31
2022/11/04 13:27:46;;;;;;;5.97;1.35;;;13.30;99.90;;;;;;5073344;28;20490;-31
2022/11/04 13:30:29;;;;;;;8.63;1.25;;;13.30;1.00;;;;;;5073738;28;20084;-31
2022/11/04 13:33:04;;;;;;;9.70;1.35;;;13.30;99.90;;;;;;5074856;28;20080;-30
2022/11/04 13:36:12;;;;;;;8.80;1.90;;;13.30;99.90;;;;;;5074858;28;20149;-31
2022/11/04 13:38:39;;;;;;;11.57;1.80;;;13.40;1.00;;;;;;5073248;28;20059;-31
2022/11/04 13:41:20;;;;;;;9.10;1.25;;;13.50;99.90;;;;;;5073751;28;20057;-30
2022/11/04 13:43:52;;;;;;;5.07;0.80;;;13.60;99.90;;;;;;5076622;28;20040;-30
2022/11/04 13:46:22;;;;;;;9.35;1.08;;;13.60;99.90;;;;;;5073146;28;20090;-30
2022/11/04 13:49:01;;;;;;;7.03;2.15;;;13.70;99.90;;;;;;5074005;28;20102;-30
2022/11/04 13:51:38;;;;;;;5.25;1.10;;;13.90;1.00;;;;;;5074597;28;20047;-30
2022/11/04 13:54:06;;;;;;;7.63;0.73;;;13.90;1.00;;;;;;5073595;28;20064;-30
2022/11/04 13:56:37;;;;;;;11.00;1.27;;;13.50;99.90;;;;;;5073595;28;20490;-30